createdAt,value
2018-05-16T00:00:43.139Z,35.27
2018-05-16T00:03:13.664Z,31.50
2018-05-16T00:05:50.586Z,31.63
2018-05-16T00:08:22.547Z,30.47
2018-05-16T00:10:53.150Z,31.77
2018-05-16T00:13:27.662Z,34.03
2018-05-16T00:15:57.425Z,37.10
2018-05-16T00:18:27.436Z,29.30
2018-05-16T00:20:58.901Z,32.77
2018-05-16T00:23:29.845Z,31.93
2018-05-16T00:25:59.436Z,36.53
2018-05-16T00:28:33.822Z,44.57
2018-05-16T00:31:04.531Z,45.70
2018-05-16T00:33:35.272Z,42.50
2018-05-16T00:36:09.526Z,39.33
2018-05-16T00:38:40.234Z,36.87
2018-05-16T00:41:16.882Z,44.57
2018-05-16T00:43:47.894Z,37.20
2018-05-16T00:46:20.957Z,31.43
2018-05-16T00:48:51.405Z,38.57
2018-05-16T00:51:34.721Z,39.70
2018-05-16T00:54:05.349Z,38.67
2018-05-16T00:56:37.003Z,48.47
2018-05-16T00:59:06.581Z,53.97
2018-05-16T01:01:39.092Z,59.60
2018-05-16T01:04:09.912Z,56.53
2018-05-16T01:06:42.234Z,52.70
2018-05-16T01:09:12.126Z,45.50
2018-05-16T01:11:52.901Z,40.80
2018-05-16T01:14:37.849Z,41.37
2018-05-16T01:17:11.751Z,43.30
2018-05-16T01:20:32.294Z,44.47
2018-05-16T01:23:02.601Z,35.83
2018-05-16T01:25:34.930Z,47.37
2018-05-16T01:28:04.433Z,37.77
2018-05-16T01:30:56.665Z,28.60
2018-05-16T01:33:26.667Z,32.87
2018-05-16T01:36:00.718Z,39.33
2018-05-16T01:38:50.561Z,40.47
2018-05-16T01:41:21.873Z,34.57
2018-05-16T01:44:02.150Z,49.13
2018-05-16T01:46:34.847Z,46.90
2018-05-16T01:49:22.073Z,52.53
2018-05-16T01:51:52.517Z,34.40
2018-05-16T01:54:22.910Z,22.93
2018-05-16T01:56:59.333Z,21.83
2018-05-16T01:59:32.692Z,29.53
2018-05-16T02:02:02.413Z,33.90
2018-05-16T02:04:32.911Z,32.17
2018-05-16T02:07:06.737Z,25.70
2018-05-16T02:09:36.934Z,17.93
2018-05-16T02:12:06.627Z,16.87
2018-05-16T02:14:36.114Z,13.20
2018-05-16T02:17:08.115Z,14.37
2018-05-16T02:19:37.623Z,13.83
2018-05-16T02:22:07.206Z,17.63
2018-05-16T02:24:38.131Z,16.03
2018-05-16T02:27:20.526Z,12.73
2018-05-16T02:29:50.909Z,14.33
2018-05-16T02:32:22.856Z,13.33
2018-05-16T02:34:54.834Z,11.40
2018-05-16T02:37:24.801Z,12.90
2018-05-16T02:39:56.896Z,16.07
2018-05-16T02:42:27.365Z,17.23
2018-05-16T02:48:19.835Z,23.47
2018-05-16T02:50:49.428Z,24.13
2018-05-16T02:53:21.698Z,28.57
2018-05-16T02:55:53.515Z,20.93
2018-05-16T02:58:23.182Z,15.40
2018-05-16T03:00:55.479Z,11.67
2018-05-16T03:03:25.892Z,19.33
2018-05-16T03:06:02.760Z,19.73
2018-05-16T03:08:32.459Z,24.40
2018-05-16T03:11:02.813Z,23.07
2018-05-16T03:14:02.725Z,22.07
2018-05-16T03:16:32.766Z,20.57
2018-05-16T03:19:02.414Z,21.07
2018-05-16T03:21:31.982Z,16.43
2018-05-16T03:24:26.672Z,16.30
2018-05-16T03:26:56.878Z,18.43
2018-05-16T03:29:26.315Z,22.73
2018-05-16T03:31:58.705Z,25.20
2018-05-16T03:34:28.329Z,26.23
2018-05-16T03:36:58.737Z,26.87
2018-05-16T03:39:28.264Z,31.60
2018-05-16T03:41:58.495Z,29.37
2018-05-16T03:44:28.820Z,26.20
2018-05-16T03:46:58.256Z,25.67
2018-05-16T03:49:27.661Z,30.80
2018-05-16T03:51:58.097Z,30.97
2018-05-16T03:54:27.538Z,21.10
2018-05-16T03:56:57.422Z,18.83
2018-05-16T03:59:38.004Z,24.47
2018-05-16T04:05:30.444Z,18.70
2018-05-16T04:07:59.789Z,22.27
2018-05-16T04:10:29.118Z,23.73
2018-05-16T04:12:58.551Z,26.27
2018-05-16T04:15:27.927Z,26.27
2018-05-16T04:17:57.285Z,35.20
2018-05-16T04:20:27.384Z,41.90
2018-05-16T04:22:57.470Z,36.57
2018-05-16T04:25:26.874Z,39.43
2018-05-16T04:27:57.143Z,36.80
2018-05-16T04:30:26.628Z,39.70
2018-05-16T04:32:55.953Z,35.33
2018-05-16T04:35:25.546Z,41.90
2018-05-16T04:37:54.835Z,58.47
2018-05-16T04:40:24.169Z,37.73
2018-05-16T04:42:53.453Z,37.57
2018-05-16T04:45:22.738Z,39.43
2018-05-16T04:47:52.050Z,38.97
2018-05-16T04:50:21.538Z,39.10
2018-05-16T04:52:50.791Z,47.27
2018-05-16T04:55:20.196Z,43.33
2018-05-16T04:57:49.439Z,46.43
2018-05-16T05:00:18.682Z,41.37
2018-05-16T05:02:48.776Z,42.90
2018-05-16T05:05:18.067Z,64.17
2018-05-16T05:07:47.344Z,50.67
2018-05-16T05:10:16.670Z,49.53
2018-05-16T05:12:45.916Z,47.53
2018-05-16T05:15:15.159Z,45.50
2018-05-16T05:17:44.512Z,48.27
2018-05-16T05:20:13.765Z,49.27
2018-05-16T05:22:43.071Z,50.83
2018-05-16T05:25:12.374Z,48.63
2018-05-16T05:27:41.708Z,47.33
2018-05-16T05:30:11.291Z,54.03
2018-05-16T05:32:40.573Z,58.20
2018-05-16T05:35:09.957Z,35.30
2018-05-16T05:37:40.161Z,31.20
2018-05-16T05:40:09.523Z,31.17
2018-05-16T05:42:39.038Z,27.13
2018-05-16T05:45:09.453Z,27.30
2018-05-16T05:47:38.708Z,50.80
2018-05-16T05:50:07.988Z,24.77
2018-05-16T05:52:37.378Z,22.00
2018-05-16T05:55:06.642Z,20.07
2018-05-16T05:57:35.876Z,13.63
2018-05-16T06:00:05.389Z,13.23
2018-05-16T06:02:34.653Z,9.07
2018-05-16T06:05:03.924Z,14.43
2018-05-16T06:07:33.999Z,17.80
2018-05-16T06:10:03.249Z,11.70
2018-05-16T06:12:32.497Z,14.60
2018-05-16T06:15:03.025Z,408.80
2018-05-16T06:17:33.072Z,14.07
2018-05-16T06:20:03.230Z,18.07
2018-05-16T06:22:32.529Z,15.03
2018-05-16T06:25:01.774Z,36.00
2018-05-16T06:27:31.855Z,18.00
2018-05-16T06:30:01.108Z,15.03
2018-05-16T06:32:30.348Z,15.67
2018-05-16T06:37:42.691Z,17.20
2018-05-16T06:40:12.076Z,22.43
2018-05-16T06:42:41.339Z,24.03
2018-05-16T06:45:17.328Z,45.43
2018-05-16T06:47:49.991Z,35.33
2018-05-16T06:50:19.616Z,39.87
2018-05-16T06:52:49.578Z,43.30
2018-05-16T06:58:40.082Z,58.83
2018-05-16T07:01:09.381Z,57.03
2018-05-16T07:03:38.597Z,63.60
2018-05-16T07:06:07.987Z,61.40
2018-05-16T07:08:37.198Z,77.30
2018-05-16T07:11:06.426Z,76.00
2018-05-16T07:13:35.779Z,63.00
2018-05-16T07:16:05.104Z,73.77
2018-05-16T07:18:34.335Z,68.83
2018-05-16T07:21:55.429Z,76.03
2018-05-16T07:24:24.809Z,79.33
2018-05-16T07:26:54.241Z,73.90
2018-05-16T07:29:23.560Z,86.13
2018-05-16T07:31:52.990Z,83.10
2018-05-16T07:34:22.353Z,76.47
2018-05-16T07:36:51.899Z,76.00
2018-05-16T07:39:21.293Z,80.67
2018-05-16T07:41:50.859Z,89.23
2018-05-16T07:44:20.163Z,86.43
2018-05-16T07:46:49.594Z,84.50
2018-05-16T07:49:19.059Z,78.50
2018-05-16T07:51:48.554Z,83.43
2018-05-16T07:54:18.222Z,83.07
2018-05-16T07:56:47.532Z,86.90
2018-05-16T07:59:16.932Z,83.20
2018-05-16T08:01:46.285Z,89.07
2018-05-16T08:04:15.682Z,86.40
2018-05-16T08:06:45.090Z,98.77
2018-05-16T08:09:14.482Z,106.33
2018-05-16T08:11:43.950Z,117.50
2018-05-16T08:14:14.921Z,109.93
2018-05-16T08:16:44.332Z,125.47
2018-05-16T08:19:13.654Z,123.30
2018-05-16T08:21:43.160Z,126.73
2018-05-16T08:24:12.531Z,123.07
2018-05-16T08:26:42.937Z,120.63
2018-05-16T08:29:12.303Z,116.93
2018-05-16T08:31:41.737Z,129.57
2018-05-16T08:34:11.046Z,134.03
2018-05-16T08:36:41.395Z,137.07
2018-05-16T08:39:10.861Z,138.13
2018-05-16T08:41:40.282Z,148.00
2018-05-16T08:44:09.769Z,151.40
2018-05-16T08:46:39.184Z,150.10
2018-05-16T08:49:08.507Z,149.00
2018-05-16T08:51:38.729Z,135.83
2018-05-16T08:54:08.806Z,138.57
2018-05-16T08:56:38.196Z,153.30
2018-05-16T08:59:07.700Z,150.03
2018-05-16T09:01:37.008Z,167.33
2018-05-16T09:04:06.544Z,158.27
2018-05-16T09:06:35.929Z,166.63
2018-05-16T09:09:05.643Z,164.27
2018-05-16T09:11:35.158Z,178.03
2018-05-16T09:14:04.640Z,178.30
2018-05-16T09:16:34.003Z,169.83
2018-05-16T09:19:03.306Z,190.73
2018-05-16T09:21:32.766Z,157.53
2018-05-16T09:24:02.090Z,142.23
2018-05-16T09:26:31.531Z,138.67
2018-05-16T09:29:00.921Z,154.07
2018-05-16T09:31:30.337Z,153.30
2018-05-16T09:33:59.681Z,146.73
2018-05-16T09:36:29.093Z,156.20
2018-05-16T09:38:58.559Z,171.03
2018-05-16T09:41:27.993Z,173.43
2018-05-16T09:43:57.538Z,175.90
2018-05-16T09:46:27.143Z,175.37
2018-05-16T09:48:56.713Z,177.37
2018-05-16T09:51:26.639Z,161.37
2018-05-16T09:53:56.084Z,147.43
2018-05-16T09:56:25.381Z,144.17
2018-05-16T09:58:54.890Z,154.33
2018-05-16T10:01:24.232Z,164.20
2018-05-16T10:03:53.676Z,151.43
2018-05-16T10:06:23.221Z,141.77
2018-05-16T10:08:52.663Z,147.97
2018-05-16T10:11:22.041Z,158.23
2018-05-16T10:17:12.363Z,151.93
2018-05-16T10:19:42.010Z,143.07
2018-05-16T10:22:11.445Z,135.87
2018-05-16T10:24:40.922Z,156.63
2018-05-16T10:27:10.410Z,140.10
2018-05-16T10:29:40.138Z,154.73
2018-05-16T10:32:09.684Z,143.77
2018-05-16T10:34:39.261Z,163.07
2018-05-16T10:37:09.160Z,151.20
2018-05-16T10:39:40.367Z,165.93
2018-05-16T10:42:10.653Z,165.83
2018-05-16T10:44:40.858Z,155.23
2018-05-16T10:47:10.462Z,149.30
2018-05-16T10:49:39.945Z,140.93
2018-05-16T10:52:09.578Z,161.00
2018-05-16T10:54:40.055Z,172.57
2018-05-16T10:57:09.694Z,189.10
2018-05-16T10:59:39.517Z,168.87
2018-05-16T11:02:09.142Z,147.10
2018-05-16T11:04:38.583Z,127.43
2018-05-16T11:07:08.038Z,142.80
2018-05-16T11:09:37.605Z,133.77
2018-05-16T11:12:07.044Z,134.87
2018-05-16T11:14:36.510Z,128.30
2018-05-16T11:17:06.865Z,128.10
2018-05-16T11:19:36.611Z,132.70
2018-05-16T11:22:06.302Z,132.50
2018-05-16T11:24:35.911Z,118.33
2018-05-16T11:27:05.416Z,128.17
2018-05-16T11:29:34.867Z,123.97
2018-05-16T11:32:04.527Z,108.73
2018-05-16T11:34:34.086Z,116.57
2018-05-16T11:37:03.565Z,135.57
2018-05-16T11:39:34.239Z,132.77
2018-05-16T11:42:04.149Z,138.00
2018-05-16T11:44:34.773Z,122.03
2018-05-16T11:49:32.925Z,127.37
2018-05-16T11:52:03.715Z,132.43
2018-05-16T11:54:33.648Z,143.77
2018-05-16T11:57:03.641Z,145.70
2018-05-16T11:59:33.096Z,150.83
2018-05-16T12:02:04.353Z,140.70
2018-05-16T12:04:34.402Z,155.13
2018-05-16T12:07:04.934Z,153.30
2018-05-16T12:09:34.889Z,141.67
2018-05-16T12:12:04.874Z,181.40
2018-05-16T12:14:34.443Z,156.57
2018-05-16T12:17:03.899Z,180.77
2018-05-16T12:19:33.857Z,174.17
2018-05-16T12:22:04.471Z,154.27
2018-05-16T12:24:34.521Z,139.03
2018-05-16T12:27:04.567Z,125.67
2018-05-16T12:29:34.483Z,137.50
2018-05-16T12:32:04.647Z,146.70
2018-05-16T12:34:34.191Z,103.17
2018-05-16T12:37:03.700Z,105.47
2018-05-16T12:39:33.667Z,104.60
2018-05-16T12:42:03.553Z,106.30
2018-05-16T12:44:33.011Z,84.47
2018-05-16T12:47:03.230Z,52.13
2018-05-16T12:49:32.856Z,39.23
2018-05-16T12:52:02.484Z,33.27
2018-05-16T12:54:32.029Z,29.07
2018-05-16T12:57:01.572Z,31.57
2018-05-16T12:59:31.063Z,37.37
2018-05-16T13:02:01.897Z,42.90
2018-05-16T13:04:32.492Z,35.53
2018-05-16T13:07:02.035Z,41.20
2018-05-16T13:09:32.359Z,36.93
2018-05-16T13:12:01.984Z,36.23
2018-05-16T13:14:31.460Z,37.97
2018-05-16T13:17:01.425Z,44.20
2018-05-16T13:19:31.389Z,47.90
2018-05-16T13:22:01.307Z,41.37
2018-05-16T13:24:31.186Z,43.90
2018-05-16T13:27:00.693Z,43.57
2018-05-16T13:29:30.256Z,42.27
2018-05-16T13:31:59.714Z,38.60
2018-05-16T13:34:29.186Z,38.00
2018-05-16T13:36:58.761Z,39.83
2018-05-16T13:39:29.168Z,37.70
2018-05-16T13:41:58.776Z,38.50
2018-05-16T13:44:28.254Z,42.33
2018-05-16T13:46:57.766Z,31.87
2018-05-16T13:49:35.695Z,37.67
2018-05-16T13:52:08.085Z,35.90
2018-05-16T13:54:37.748Z,33.57
2018-05-16T13:57:07.215Z,40.33
2018-05-16T13:59:37.092Z,36.10
2018-05-16T14:05:08.392Z,38.37
2018-05-16T14:07:37.984Z,39.37
2018-05-16T14:10:09.258Z,33.80
2018-05-16T14:12:38.873Z,31.70
2018-05-16T14:15:09.093Z,30.50
2018-05-16T14:17:38.786Z,28.07
2018-05-16T14:20:08.416Z,29.63
2018-05-16T14:22:38.822Z,27.60
2018-05-16T14:25:08.421Z,24.87
2018-05-16T14:27:38.403Z,21.17
2018-05-16T14:30:11.784Z,23.20
2018-05-16T14:32:42.082Z,22.27
2018-05-16T14:35:11.589Z,22.77
2018-05-16T14:37:41.481Z,22.33
2018-05-16T14:40:11.367Z,23.77
2018-05-16T14:42:41.368Z,30.00
2018-05-16T14:45:14.367Z,29.30
2018-05-16T14:47:45.734Z,22.20
2018-05-16T14:50:15.218Z,18.60
2018-05-16T14:52:45.615Z,24.03
2018-05-16T14:55:16.451Z,24.20
2018-05-16T14:57:46.898Z,19.97
2018-05-16T15:00:16.665Z,18.23
2018-05-16T15:02:46.115Z,21.30
2018-05-16T15:05:15.725Z,16.63
2018-05-16T15:07:45.200Z,17.40
2018-05-16T15:10:14.743Z,18.98
2018-05-16T15:12:44.952Z,20.23
2018-05-16T15:15:14.422Z,19.15
2018-05-16T15:17:43.963Z,19.20
2018-05-16T15:20:13.411Z,21.25
2018-05-16T15:22:43.137Z,21.57
2018-05-16T15:25:14.065Z,18.67
2018-05-16T15:27:44.669Z,20.67
2018-05-16T15:30:14.144Z,22.27
2018-05-16T15:32:43.896Z,24.17
2018-05-16T15:35:14.304Z,23.95
2018-05-16T15:37:43.840Z,22.02
2018-05-16T15:40:14.103Z,28.75
2018-05-16T15:42:45.246Z,24.00
2018-05-16T15:45:15.732Z,24.70
2018-05-16T15:47:45.342Z,26.15
2018-05-16T15:50:14.917Z,28.42
2018-05-16T15:52:44.606Z,22.02
2018-05-16T15:55:15.659Z,29.02
2018-05-16T15:57:47.891Z,21.90
2018-05-16T16:00:17.614Z,24.92
2018-05-16T16:02:47.088Z,23.23
2018-05-16T16:05:16.854Z,26.35
2018-05-16T16:07:46.511Z,32.00
2018-05-16T16:10:15.980Z,23.17
2018-05-16T16:12:45.536Z,26.17
2018-05-16T16:15:15.235Z,21.98
2018-05-16T16:17:46.691Z,18.27
2018-05-16T16:20:16.338Z,22.02
2018-05-16T16:22:47.184Z,27.60
2018-05-16T16:25:16.723Z,23.10
2018-05-16T16:27:46.167Z,21.30
2018-05-16T16:30:15.822Z,21.10
2018-05-16T16:32:45.350Z,18.48
2018-05-16T16:35:14.794Z,23.87
2018-05-16T16:37:44.349Z,22.23
2018-05-16T16:40:13.861Z,19.50
2018-05-16T16:42:43.365Z,18.60
2018-05-16T16:45:12.919Z,16.20
2018-05-16T16:47:43.783Z,14.48
2018-05-16T16:52:47.418Z,14.20
2018-05-16T16:55:27.022Z,22.35
2018-05-16T16:57:57.909Z,18.10
2018-05-16T17:00:27.393Z,15.38
2018-05-16T17:02:56.865Z,16.95
2018-05-16T17:05:26.698Z,13.02
2018-05-16T17:07:56.427Z,15.05
2018-05-16T17:10:25.985Z,13.13
2018-05-16T17:12:55.712Z,14.50
2018-05-16T17:15:28.476Z,16.58
2018-05-16T17:17:58.727Z,18.05
2018-05-16T17:20:28.534Z,12.85
2018-05-16T17:22:58.116Z,13.10
2018-05-16T17:25:27.612Z,15.88
2018-05-16T17:27:58.243Z,18.30
2018-05-16T17:30:29.527Z,16.02
2018-05-16T17:32:59.044Z,11.35
2018-05-16T17:35:28.876Z,9.63
2018-05-16T17:37:58.467Z,10.00
2018-05-16T17:40:28.000Z,11.98
2018-05-16T17:42:58.286Z,11.88
2018-05-16T17:45:29.046Z,16.02
2018-05-16T17:47:58.783Z,21.87
2018-05-16T17:50:28.549Z,12.73
2018-05-16T17:52:58.865Z,13.05
2018-05-16T17:55:28.404Z,12.40
2018-05-16T18:01:19.249Z,13.95
2018-05-16T18:03:48.767Z,15.40
2018-05-16T18:06:19.885Z,15.85
2018-05-16T18:12:18.720Z,21.85
2018-05-16T18:17:50.237Z,11.07
2018-05-16T18:20:23.540Z,10.57
2018-05-16T18:22:53.386Z,10.20
2018-05-16T18:25:23.081Z,11.10
2018-05-16T18:27:55.323Z,18.08
2018-05-16T18:30:24.941Z,12.98
2018-05-16T18:33:00.525Z,11.85
2018-05-16T18:35:30.161Z,15.57
2018-05-16T18:38:01.028Z,14.18
2018-05-16T18:40:32.435Z,18.85
2018-05-16T18:43:02.710Z,14.98
2018-05-16T18:48:10.768Z,11.23
2018-05-16T18:50:45.217Z,16.25
2018-05-16T18:55:51.655Z,15.02
2018-05-16T18:58:22.593Z,12.50
2018-05-16T19:00:57.286Z,15.30
2018-05-16T19:03:27.801Z,13.57
2018-05-16T19:05:58.363Z,14.30
2018-05-16T19:08:29.114Z,22.23
2018-05-16T19:10:59.289Z,18.02
2018-05-16T19:13:29.082Z,14.68
2018-05-16T19:16:01.379Z,11.85
2018-05-16T19:18:32.981Z,21.67
2018-05-16T19:21:03.855Z,13.15
2018-05-16T19:23:35.762Z,12.23
2018-05-16T19:29:26.936Z,15.20
2018-05-16T19:31:56.336Z,17.98
2018-05-16T19:34:25.558Z,11.77
2018-05-16T19:36:55.854Z,28.35
2018-05-16T19:39:26.206Z,14.27
2018-05-16T19:41:55.421Z,22.73
2018-05-16T19:44:25.553Z,14.30
2018-05-16T19:46:54.772Z,10.75
2018-05-16T19:49:27.988Z,12.52
2018-05-16T19:51:57.330Z,17.08
2018-05-16T19:54:26.604Z,14.63
2018-05-16T19:56:56.390Z,13.48
2018-05-16T19:59:30.434Z,16.27
2018-05-16T20:02:08.734Z,14.40
2018-05-16T20:08:02.925Z,11.38
2018-05-16T20:10:36.285Z,17.05
2018-05-16T20:13:08.124Z,10.43
2018-05-16T20:18:37.335Z,9.73
2018-05-16T20:21:26.509Z,10.73
2018-05-16T20:24:07.717Z,11.95
2018-05-16T20:26:45.495Z,10.93
2018-05-16T20:32:06.059Z,26.95
2018-05-16T20:34:55.266Z,29.83
2018-05-16T20:37:34.243Z,31.00
2018-05-16T20:43:13.650Z,27.45
2018-05-16T20:45:44.951Z,19.00
2018-05-16T20:48:18.087Z,13.18
2018-05-16T20:56:29.988Z,11.93
2018-05-16T21:04:39.147Z,13.67
2018-05-16T21:07:11.088Z,16.07
2018-05-16T21:09:46.228Z,15.63
2018-05-16T21:15:45.869Z,20.80
2018-05-16T21:18:16.877Z,20.33
2018-05-16T21:20:47.389Z,22.60
2018-05-16T21:23:16.704Z,25.70
2018-05-16T21:25:46.030Z,23.80
2018-05-16T21:28:15.460Z,25.17
2018-05-16T21:30:46.156Z,19.13
2018-05-16T21:33:15.571Z,24.03
2018-05-16T21:35:45.261Z,18.47
2018-05-16T21:38:14.569Z,18.90
2018-05-16T21:40:43.997Z,27.73
2018-05-16T21:43:14.101Z,40.63
2018-05-16T21:45:43.481Z,29.63
2018-05-16T21:48:12.890Z,48.73
2018-05-16T21:50:42.389Z,43.00
2018-05-16T21:53:11.744Z,28.83
2018-05-16T21:55:41.869Z,35.77
2018-05-16T21:58:11.980Z,50.87
2018-05-16T22:03:24.865Z,38.77
2018-05-16T22:05:54.203Z,34.03
2018-05-16T22:08:23.935Z,36.10
2018-05-16T22:10:53.407Z,53.43
2018-05-16T22:13:22.744Z,51.93
2018-05-16T22:15:52.070Z,46.50
2018-05-16T22:18:21.689Z,40.63
2018-05-16T22:20:51.052Z,41.93
2018-05-16T22:23:20.393Z,45.90
2018-05-16T22:25:49.829Z,54.27
2018-05-16T22:28:19.301Z,49.67
2018-05-16T22:30:57.017Z,61.37
2018-05-16T22:33:31.699Z,59.30
2018-05-16T22:36:08.127Z,53.63
2018-05-16T22:38:42.970Z,51.20
2018-05-16T22:41:19.236Z,57.63
2018-05-16T22:43:52.863Z,54.50
2018-05-16T22:46:22.237Z,55.00
2018-05-16T22:48:51.551Z,53.40
2018-05-16T22:51:20.847Z,54.73
2018-05-16T22:53:50.263Z,54.10
2018-05-16T22:56:19.893Z,53.43
2018-05-16T22:58:49.291Z,51.23
2018-05-16T23:01:18.655Z,47.27
2018-05-16T23:03:49.422Z,49.37
2018-05-16T23:06:19.031Z,49.70
2018-05-16T23:08:49.703Z,48.67
2018-05-16T23:11:20.085Z,53.10
2018-05-16T23:13:49.626Z,55.13
2018-05-16T23:16:18.997Z,51.17
2018-05-16T23:22:17.789Z,51.37
2018-05-16T23:24:48.481Z,40.30
2018-05-16T23:27:19.767Z,14.00
2018-05-16T23:29:50.573Z,23.80
2018-05-16T23:32:27.474Z,41.40
2018-05-16T23:35:00.030Z,21.67
2018-05-16T23:37:33.774Z,19.70
2018-05-16T23:47:54.956Z,19.57
2018-05-16T23:53:06.478Z,28.23
2018-05-16T23:55:41.082Z,30.33
2018-05-16T23:58:20.274Z,30.90
